KALN/ALN METAR and TAF weather

Enter ICAO airport designator
Station Type Date Time Source
KALN METAR 2019/12/07 09:55 UTC NOAA

KALN 070955Z AUTO 00000KT 7SM CLR M05/M05 A3038 RMK AO2 T10501050


Station Type Date Time Source
KALN Decoded METAR 2019/12/07 09:55 UTC NOAA

Alton/St. Louis, St. Louis Regional Airport, IL, United States (KALN) 38-54N 090-03W
Dec 07, 2019 - 04:55 AM EST / 2019.12.07 0955 UTC
Wind: Calm:0
Visibility: 7 mile(s):0
Sky conditions: clear
Temperature: 23.0 F (-5.0 C)
Dew Point: 23.0 F (-5.0 C)
Relative Humidity: 100%
Pressure (altimeter): 30.38 in. Hg (1028 hPa)
ob: KALN 070955Z AUTO 00000KT 7SM CLR M05/M05 A3038 RMK AO2 T10501050
cycle: 10

Station Type Date Time Source
KALN TAF UTC NOAA

Error!

Example: see airport list